sensor_id;sensor_type;location;lat;lon;timestamp;P1;durP1;ratioP1;P2;durP2;ratioP2
11384;SDS011;5747;56.748;13.882;2023-10-31T00:02:08;68.83;;;6.00;;
11384;SDS011;5747;56.748;13.882;2023-10-31T00:04:38;113.03;;;6.93;;
11384;SDS011;5747;56.748;13.882;2023-10-31T00:07:06;127.87;;;8.73;;
11384;SDS011;5747;56.748;13.882;2023-10-31T00:09:35;155.20;;;9.67;;
11384;SDS011;5747;56.748;13.882;2023-10-31T00:12:03;179.07;;;13.43;;
11384;SDS011;5747;56.748;13.882;2023-10-31T00:14:32;189.50;;;11.43;;
11384;SDS011;5747;56.748;13.882;2023-10-31T00:17:00;101.20;;;7.00;;
11384;SDS011;5747;56.748;13.882;2023-10-31T00:19:28;46.37;;;5.83;;
11384;SDS011;5747;56.748;13.882;2023-10-31T00:21:57;29.20;;;7.37;;
11384;SDS011;5747;56.748;13.882;2023-10-31T00:24:25;35.93;;;8.77;;
11384;SDS011;5747;56.748;13.882;2023-10-31T00:26:54;24.23;;;8.40;;
11384;SDS011;5747;56.748;13.882;2023-10-31T00:29:22;22.43;;;8.70;;
11384;SDS011;5747;56.748;13.882;2023-10-31T00:31:50;25.30;;;9.27;;
11384;SDS011;5747;56.748;13.882;2023-10-31T00:34:18;29.57;;;10.17;;
11384;SDS011;5747;56.748;13.882;2023-10-31T00:36:46;26.30;;;9.13;;
11384;SDS011;5747;56.748;13.882;2023-10-31T00:39:15;19.00;;;9.13;;
11384;SDS011;5747;56.748;13.882;2023-10-31T00:41:45;26.60;;;9.30;;
11384;SDS011;5747;56.748;13.882;2023-10-31T00:44:13;24.43;;;9.93;;
11384;SDS011;5747;56.748;13.882;2023-10-31T00:46:41;36.10;;;9.97;;
11384;SDS011;5747;56.748;13.882;2023-10-31T00:49:10;23.93;;;9.17;;
11384;SDS011;5747;56.748;13.882;2023-10-31T00:51:38;26.63;;;9.83;;
11384;SDS011;5747;56.748;13.882;2023-10-31T00:54:06;30.47;;;9.80;;
11384;SDS011;5747;56.748;13.882;2023-10-31T00:56:36;31.23;;;9.87;;
11384;SDS011;5747;56.748;13.882;2023-10-31T00:59:04;31.20;;;11.00;;
11384;SDS011;5747;56.748;13.882;2023-10-31T01:01:33;32.50;;;10.30;;
11384;SDS011;5747;56.748;13.882;2023-10-31T01:04:01;31.67;;;10.63;;
11384;SDS011;5747;56.748;13.882;2023-10-31T01:06:30;30.83;;;10.63;;
11384;SDS011;5747;56.748;13.882;2023-10-31T01:08:58;33.10;;;11.83;;
11384;SDS011;5747;56.748;13.882;2023-10-31T01:11:26;28.93;;;10.23;;
11384;SDS011;5747;56.748;13.882;2023-10-31T01:13:55;31.77;;;10.57;;
11384;SDS011;5747;56.748;13.882;2023-10-31T01:16:24;23.43;;;9.93;;
11384;SDS011;5747;56.748;13.882;2023-10-31T01:18:52;22.47;;;10.07;;
11384;SDS011;5747;56.748;13.882;2023-10-31T01:21:20;28.30;;;9.87;;
11384;SDS011;5747;56.748;13.882;2023-10-31T01:23:48;24.13;;;10.23;;
11384;SDS011;5747;56.748;13.882;2023-10-31T01:26:17;21.33;;;10.23;;
11384;SDS011;5747;56.748;13.882;2023-10-31T01:28:45;23.70;;;9.67;;
11384;SDS011;5747;56.748;13.882;2023-10-31T01:31:14;22.30;;;10.33;;
11384;SDS011;5747;56.748;13.882;2023-10-31T01:33:42;26.57;;;10.30;;
11384;SDS011;5747;56.748;13.882;2023-10-31T01:36:11;22.37;;;10.43;;
11384;SDS011;5747;56.748;13.882;2023-10-31T01:38:40;18.73;;;10.40;;
11384;SDS011;5747;56.748;13.882;2023-10-31T01:41:09;21.23;;;9.80;;
11384;SDS011;5747;56.748;13.882;2023-10-31T01:43:37;18.47;;;10.13;;
11384;SDS011;5747;56.748;13.882;2023-10-31T01:46:08;21.77;;;9.27;;
11384;SDS011;5747;56.748;13.882;2023-10-31T01:48:38;23.17;;;10.40;;
11384;SDS011;5747;56.748;13.882;2023-10-31T01:51:06;19.27;;;9.60;;
11384;SDS011;5747;56.748;13.882;2023-10-31T01:53:34;18.73;;;9.77;;
11384;SDS011;5747;56.748;13.882;2023-10-31T01:56:04;18.23;;;9.73;;
11384;SDS011;5747;56.748;13.882;2023-10-31T01:58:34;19.37;;;10.03;;
11384;SDS011;5747;56.748;13.882;2023-10-31T02:01:04;15.57;;;9.03;;
11384;SDS011;5747;56.748;13.882;2023-10-31T02:03:33;19.87;;;9.43;;
11384;SDS011;5747;56.748;13.882;2023-10-31T02:06:03;16.73;;;8.67;;
11384;SDS011;5747;56.748;13.882;2023-10-31T02:08:31;14.53;;;8.47;;
11384;SDS011;5747;56.748;13.882;2023-10-31T02:11:00;15.20;;;8.40;;
11384;SDS011;5747;56.748;13.882;2023-10-31T02:13:30;16.80;;;8.37;;
11384;SDS011;5747;56.748;13.882;2023-10-31T02:15:58;14.90;;;7.87;;
11384;SDS011;5747;56.748;13.882;2023-10-31T02:18:27;17.70;;;7.90;;
11384;SDS011;5747;56.748;13.882;2023-10-31T02:20:56;13.00;;;7.73;;
11384;SDS011;5747;56.748;13.882;2023-10-31T02:23:27;18.63;;;7.60;;
11384;SDS011;5747;56.748;13.882;2023-10-31T02:25:55;12.60;;;7.30;;
11384;SDS011;5747;56.748;13.882;2023-10-31T02:28:24;18.93;;;7.30;;
11384;SDS011;5747;56.748;13.882;2023-10-31T02:30:54;23.23;;;7.10;;
11384;SDS011;5747;56.748;13.882;2023-10-31T02:33:22;14.17;;;6.93;;
11384;SDS011;5747;56.748;13.882;2023-10-31T02:35:51;18.20;;;6.60;;
11384;SDS011;5747;56.748;13.882;2023-10-31T02:38:19;16.77;;;6.80;;
11384;SDS011;5747;56.748;13.882;2023-10-31T02:40:49;14.30;;;6.63;;
11384;SDS011;5747;56.748;13.882;2023-10-31T02:43:17;12.53;;;6.00;;
11384;SDS011;5747;56.748;13.882;2023-10-31T02:45:45;18.57;;;6.17;;
11384;SDS011;5747;56.748;13.882;2023-10-31T02:48:13;13.87;;;5.30;;
11384;SDS011;5747;56.748;13.882;2023-10-31T02:50:41;17.60;;;5.63;;
11384;SDS011;5747;56.748;13.882;2023-10-31T02:53:09;15.07;;;6.13;;
11384;SDS011;5747;56.748;13.882;2023-10-31T02:55:38;11.50;;;6.10;;
11384;SDS011;5747;56.748;13.882;2023-10-31T02:58:07;24.63;;;6.50;;
11384;SDS011;5747;56.748;13.882;2023-10-31T03:00:35;15.63;;;6.00;;
11384;SDS011;5747;56.748;13.882;2023-10-31T03:03:04;16.30;;;5.57;;
11384;SDS011;5747;56.748;13.882;2023-10-31T03:05:32;13.37;;;5.90;;
11384;SDS011;5747;56.748;13.882;2023-10-31T03:08:00;28.03;;;6.43;;
11384;SDS011;5747;56.748;13.882;2023-10-31T03:10:28;25.60;;;6.60;;
11384;SDS011;5747;56.748;13.882;2023-10-31T03:12:57;17.03;;;6.27;;
11384;SDS011;5747;56.748;13.882;2023-10-31T03:15:27;21.10;;;6.30;;
11384;SDS011;5747;56.748;13.882;2023-10-31T03:17:56;14.20;;;6.20;;
11384;SDS011;5747;56.748;13.882;2023-10-31T03:20:26;16.87;;;5.57;;
11384;SDS011;5747;56.748;13.882;2023-10-31T03:22:54;10.93;;;5.50;;
11384;SDS011;5747;56.748;13.882;2023-10-31T03:25:23;13.63;;;6.00;;
11384;SDS011;5747;56.748;13.882;2023-10-31T03:27:51;13.73;;;7.00;;
11384;SDS011;5747;56.748;13.882;2023-10-31T03:30:19;13.10;;;5.97;;
11384;SDS011;5747;56.748;13.882;2023-10-31T03:32:49;11.93;;;6.53;;
11384;SDS011;5747;56.748;13.882;2023-10-31T03:35:17;8.80;;;6.30;;
11384;SDS011;5747;56.748;13.882;2023-10-31T03:37:46;9.80;;;5.70;;
11384;SDS011;5747;56.748;13.882;2023-10-31T03:40:14;13.80;;;6.53;;
11384;SDS011;5747;56.748;13.882;2023-10-31T03:42:42;9.60;;;5.73;;
11384;SDS011;5747;56.748;13.882;2023-10-31T03:45:10;12.13;;;5.80;;
11384;SDS011;5747;56.748;13.882;2023-10-31T03:47:38;14.10;;;6.40;;
11384;SDS011;5747;56.748;13.882;2023-10-31T03:50:09;7.20;;;6.03;;
11384;SDS011;5747;56.748;13.882;2023-10-31T03:52:37;10.23;;;6.10;;
11384;SDS011;5747;56.748;13.882;2023-10-31T03:55:06;15.70;;;6.77;;
11384;SDS011;5747;56.748;13.882;2023-10-31T03:57:34;9.37;;;6.10;;
11384;SDS011;5747;56.748;13.882;2023-10-31T04:00:03;12.80;;;5.73;;
11384;SDS011;5747;56.748;13.882;2023-10-31T04:02:39;16.23;;;6.50;;
11384;SDS011;5747;56.748;13.882;2023-10-31T04:05:09;21.57;;;6.10;;
11384;SDS011;5747;56.748;13.882;2023-10-31T04:07:37;14.30;;;6.13;;
11384;SDS011;5747;56.748;13.882;2023-10-31T04:10:06;11.33;;;6.27;;
11384;SDS011;5747;56.748;13.882;2023-10-31T04:12:35;9.07;;;6.07;;
11384;SDS011;5747;56.748;13.882;2023-10-31T04:15:03;10.57;;;6.07;;
11384;SDS011;5747;56.748;13.882;2023-10-31T04:17:32;14.33;;;6.83;;
11384;SDS011;5747;56.748;13.882;2023-10-31T04:20:00;11.63;;;5.40;;
11384;SDS011;5747;56.748;13.882;2023-10-31T04:22:30;7.53;;;5.50;;
11384;SDS011;5747;56.748;13.882;2023-10-31T04:24:58;10.60;;;5.47;;
11384;SDS011;5747;56.748;13.882;2023-10-31T04:27:26;6.83;;;5.27;;
11384;SDS011;5747;56.748;13.882;2023-10-31T04:29:54;10.23;;;5.40;;
11384;SDS011;5747;56.748;13.882;2023-10-31T04:32:23;11.20;;;5.57;;
11384;SDS011;5747;56.748;13.882;2023-10-31T04:34:51;9.73;;;5.17;;
11384;SDS011;5747;56.748;13.882;2023-10-31T04:37:19;7.33;;;5.20;;
11384;SDS011;5747;56.748;13.882;2023-10-31T04:39:48;10.13;;;5.70;;
11384;SDS011;5747;56.748;13.882;2023-10-31T04:42:16;6.50;;;5.10;;
11384;SDS011;5747;56.748;13.882;2023-10-31T04:44:46;7.67;;;5.20;;
11384;SDS011;5747;56.748;13.882;2023-10-31T04:47:14;5.93;;;5.30;;
11384;SDS011;5747;56.748;13.882;2023-10-31T04:49:43;7.87;;;5.20;;
11384;SDS011;5747;56.748;13.882;2023-10-31T04:52:11;10.67;;;5.37;;
11384;SDS011;5747;56.748;13.882;2023-10-31T04:54:39;8.30;;;5.50;;
11384;SDS011;5747;56.748;13.882;2023-10-31T04:57:09;8.83;;;5.63;;
11384;SDS011;5747;56.748;13.882;2023-10-31T04:59:37;6.87;;;5.50;;
11384;SDS011;5747;56.748;13.882;2023-10-31T05:02:05;7.47;;;5.37;;
11384;SDS011;5747;56.748;13.882;2023-10-31T05:04:34;8.50;;;5.80;;
11384;SDS011;5747;56.748;13.882;2023-10-31T05:07:05;6.67;;;5.40;;
11384;SDS011;5747;56.748;13.882;2023-10-31T05:09:35;8.10;;;5.50;;
11384;SDS011;5747;56.748;13.882;2023-10-31T05:12:03;6.83;;;5.00;;
11384;SDS011;5747;56.748;13.882;2023-10-31T05:14:33;7.50;;;5.03;;
11384;SDS011;5747;56.748;13.882;2023-10-31T05:17:01;6.30;;;5.13;;
11384;SDS011;5747;56.748;13.882;2023-10-31T05:19:29;6.87;;;4.83;;
11384;SDS011;5747;56.748;13.882;2023-10-31T05:21:57;5.63;;;4.60;;
11384;SDS011;5747;56.748;13.882;2023-10-31T05:24:26;6.17;;;4.33;;
11384;SDS011;5747;56.748;13.882;2023-10-31T05:26:54;6.00;;;4.40;;
11384;SDS011;5747;56.748;13.882;2023-10-31T05:29:22;4.93;;;4.20;;
11384;SDS011;5747;56.748;13.882;2023-10-31T05:31:52;7.23;;;5.17;;
11384;SDS011;5747;56.748;13.882;2023-10-31T05:34:20;7.23;;;4.87;;
11384;SDS011;5747;56.748;13.882;2023-10-31T05:36:48;5.60;;;4.07;;
11384;SDS011;5747;56.748;13.882;2023-10-31T05:39:16;7.93;;;4.73;;
11384;SDS011;5747;56.748;13.882;2023-10-31T05:41:44;6.20;;;4.73;;
11384;SDS011;5747;56.748;13.882;2023-10-31T05:44:12;8.10;;;4.50;;
11384;SDS011;5747;56.748;13.882;2023-10-31T05:46:41;5.47;;;4.60;;
11384;SDS011;5747;56.748;13.882;2023-10-31T05:49:10;5.10;;;3.70;;
11384;SDS011;5747;56.748;13.882;2023-10-31T05:51:38;5.20;;;4.53;;
11384;SDS011;5747;56.748;13.882;2023-10-31T05:54:06;6.30;;;4.30;;
11384;SDS011;5747;56.748;13.882;2023-10-31T05:56:35;5.37;;;4.33;;
11384;SDS011;5747;56.748;13.882;2023-10-31T05:59:03;6.17;;;4.17;;
11384;SDS011;5747;56.748;13.882;2023-10-31T06:01:31;5.17;;;4.13;;
11384;SDS011;5747;56.748;13.882;2023-10-31T06:04:00;5.13;;;4.20;;
11384;SDS011;5747;56.748;13.882;2023-10-31T06:06:29;5.00;;;4.03;;
11384;SDS011;5747;56.748;13.882;2023-10-31T06:08:59;4.30;;;3.90;;
11384;SDS011;5747;56.748;13.882;2023-10-31T06:11:27;5.10;;;4.00;;
11384;SDS011;5747;56.748;13.882;2023-10-31T06:13:55;4.90;;;4.40;;
11384;SDS011;5747;56.748;13.882;2023-10-31T06:16:23;5.03;;;4.20;;
11384;SDS011;5747;56.748;13.882;2023-10-31T06:18:51;4.40;;;4.00;;
11384;SDS011;5747;56.748;13.882;2023-10-31T06:21:19;5.60;;;4.03;;
11384;SDS011;5747;56.748;13.882;2023-10-31T06:23:49;4.43;;;3.83;;
11384;SDS011;5747;56.748;13.882;2023-10-31T06:26:17;6.03;;;4.27;;
11384;SDS011;5747;56.748;13.882;2023-10-31T06:28:45;7.23;;;4.47;;
11384;SDS011;5747;56.748;13.882;2023-10-31T06:31:33;4.97;;;4.00;;
11384;SDS011;5747;56.748;13.882;2023-10-31T06:34:01;4.60;;;3.70;;
11384;SDS011;5747;56.748;13.882;2023-10-31T06:36:29;5.40;;;4.27;;
11384;SDS011;5747;56.748;13.882;2023-10-31T06:38:59;5.17;;;4.13;;
11384;SDS011;5747;56.748;13.882;2023-10-31T06:41:27;4.57;;;4.10;;
11384;SDS011;5747;56.748;13.882;2023-10-31T06:43:55;4.80;;;4.07;;
11384;SDS011;5747;56.748;13.882;2023-10-31T06:46:23;6.37;;;4.40;;
11384;SDS011;5747;56.748;13.882;2023-10-31T06:48:52;5.03;;;4.20;;
11384;SDS011;5747;56.748;13.882;2023-10-31T06:51:20;4.13;;;3.73;;
11384;SDS011;5747;56.748;13.882;2023-10-31T06:53:48;5.47;;;4.00;;
11384;SDS011;5747;56.748;13.882;2023-10-31T06:56:18;5.17;;;3.80;;
11384;SDS011;5747;56.748;13.882;2023-10-31T06:58:47;6.43;;;4.03;;
11384;SDS011;5747;56.748;13.882;2023-10-31T07:01:15;3.83;;;3.43;;
11384;SDS011;5747;56.748;13.882;2023-10-31T07:03:46;4.33;;;3.53;;
11384;SDS011;5747;56.748;13.882;2023-10-31T07:06:15;5.17;;;3.60;;
11384;SDS011;5747;56.748;13.882;2023-10-31T07:08:43;5.60;;;3.63;;
11384;SDS011;5747;56.748;13.882;2023-10-31T07:11:11;4.60;;;3.50;;
11384;SDS011;5747;56.748;13.882;2023-10-31T07:13:41;6.27;;;3.83;;
11384;SDS011;5747;56.748;13.882;2023-10-31T07:16:10;4.10;;;3.70;;
11384;SDS011;5747;56.748;13.882;2023-10-31T07:18:39;4.20;;;3.50;;
11384;SDS011;5747;56.748;13.882;2023-10-31T07:21:07;4.33;;;3.60;;
11384;SDS011;5747;56.748;13.882;2023-10-31T07:23:35;4.70;;;3.90;;
11384;SDS011;5747;56.748;13.882;2023-10-31T07:26:04;5.47;;;3.80;;
11384;SDS011;5747;56.748;13.882;2023-10-31T07:28:32;5.50;;;4.13;;
11384;SDS011;5747;56.748;13.882;2023-10-31T07:31:02;4.77;;;4.20;;
11384;SDS011;5747;56.748;13.882;2023-10-31T07:33:31;7.57;;;4.10;;
11384;SDS011;5747;56.748;13.882;2023-10-31T07:35:59;4.63;;;3.90;;
11384;SDS011;5747;56.748;13.882;2023-10-31T07:38:27;4.23;;;3.73;;
11384;SDS011;5747;56.748;13.882;2023-10-31T07:40:55;5.33;;;3.80;;
11384;SDS011;5747;56.748;13.882;2023-10-31T07:43:23;5.77;;;3.50;;
11384;SDS011;5747;56.748;13.882;2023-10-31T07:45:51;3.87;;;3.33;;
11384;SDS011;5747;56.748;13.882;2023-10-31T07:48:21;4.50;;;3.67;;
11384;SDS011;5747;56.748;13.882;2023-10-31T07:50:49;5.43;;;3.60;;
11384;SDS011;5747;56.748;13.882;2023-10-31T07:53:17;4.13;;;3.57;;
11384;SDS011;5747;56.748;13.882;2023-10-31T07:55:46;3.60;;;3.23;;
11384;SDS011;5747;56.748;13.882;2023-10-31T07:58:14;5.40;;;3.57;;
11384;SDS011;5747;56.748;13.882;2023-10-31T08:00:43;4.97;;;3.20;;
11384;SDS011;5747;56.748;13.882;2023-10-31T08:03:11;3.93;;;3.37;;
11384;SDS011;5747;56.748;13.882;2023-10-31T08:05:41;4.30;;;3.37;;
11384;SDS011;5747;56.748;13.882;2023-10-31T08:08:09;4.90;;;3.43;;
11384;SDS011;5747;56.748;13.882;2023-10-31T08:10:37;3.53;;;3.17;;
11384;SDS011;5747;56.748;13.882;2023-10-31T08:13:05;3.60;;;2.93;;
11384;SDS011;5747;56.748;13.882;2023-10-31T08:15:34;2.70;;;2.50;;
11384;SDS011;5747;56.748;13.882;2023-10-31T08:18:02;3.43;;;2.60;;
11384;SDS011;5747;56.748;13.882;2023-10-31T08:20:30;3.03;;;2.50;;
11384;SDS011;5747;56.748;13.882;2023-10-31T08:23:01;5.47;;;2.73;;
11384;SDS011;5747;56.748;13.882;2023-10-31T08:25:29;4.63;;;3.17;;
11384;SDS011;5747;56.748;13.882;2023-10-31T08:27:57;3.67;;;3.13;;
11384;SDS011;5747;56.748;13.882;2023-10-31T08:30:25;2.93;;;2.70;;
11384;SDS011;5747;56.748;13.882;2023-10-31T08:32:54;4.40;;;3.00;;
11384;SDS011;5747;56.748;13.882;2023-10-31T08:35:25;3.60;;;3.23;;
11384;SDS011;5747;56.748;13.882;2023-10-31T08:37:54;3.50;;;2.93;;
11384;SDS011;5747;56.748;13.882;2023-10-31T08:40:23;3.70;;;2.80;;
11384;SDS011;5747;56.748;13.882;2023-10-31T08:42:52;3.13;;;2.60;;
11384;SDS011;5747;56.748;13.882;2023-10-31T08:45:21;3.13;;;2.83;;
11384;SDS011;5747;56.748;13.882;2023-10-31T08:47:51;4.30;;;2.50;;
11384;SDS011;5747;56.748;13.882;2023-10-31T08:50:19;3.37;;;2.50;;
11384;SDS011;5747;56.748;13.882;2023-10-31T08:52:47;4.50;;;2.57;;
11384;SDS011;5747;56.748;13.882;2023-10-31T08:55:15;3.57;;;2.47;;
11384;SDS011;5747;56.748;13.882;2023-10-31T08:57:45;5.83;;;2.57;;
11384;SDS011;5747;56.748;13.882;2023-10-31T09:00:13;4.50;;;2.70;;
11384;SDS011;5747;56.748;13.882;2023-10-31T09:02:42;4.03;;;3.17;;
11384;SDS011;5747;56.748;13.882;2023-10-31T09:05:10;5.33;;;3.43;;
11384;SDS011;5747;56.748;13.882;2023-10-31T09:07:38;4.77;;;3.30;;
11384;SDS011;5747;56.748;13.882;2023-10-31T09:10:07;5.20;;;3.50;;
11384;SDS011;5747;56.748;13.882;2023-10-31T09:12:35;4.40;;;3.47;;
11384;SDS011;5747;56.748;13.882;2023-10-31T09:15:06;4.57;;;3.67;;
11384;SDS011;5747;56.748;13.882;2023-10-31T09:17:36;4.07;;;3.20;;
11384;SDS011;5747;56.748;13.882;2023-10-31T09:20:04;3.90;;;2.97;;
11384;SDS011;5747;56.748;13.882;2023-10-31T09:22:35;3.87;;;3.30;;
11384;SDS011;5747;56.748;13.882;2023-10-31T09:25:03;4.77;;;2.90;;
11384;SDS011;5747;56.748;13.882;2023-10-31T09:27:32;2.23;;;2.03;;
11384;SDS011;5747;56.748;13.882;2023-10-31T09:30:00;3.30;;;2.37;;
11384;SDS011;5747;56.748;13.882;2023-10-31T09:32:29;3.30;;;2.13;;
11384;SDS011;5747;56.748;13.882;2023-10-31T09:34:58;3.50;;;2.03;;
11384;SDS011;5747;56.748;13.882;2023-10-31T09:37:26;3.13;;;2.70;;
11384;SDS011;5747;56.748;13.882;2023-10-31T09:39:54;3.47;;;3.07;;
11384;SDS011;5747;56.748;13.882;2023-10-31T09:42:22;3.40;;;2.87;;
11384;SDS011;5747;56.748;13.882;2023-10-31T09:44:50;3.40;;;3.03;;
11384;SDS011;5747;56.748;13.882;2023-10-31T09:47:19;3.80;;;2.80;;
11384;SDS011;5747;56.748;13.882;2023-10-31T09:49:49;2.90;;;2.70;;
11384;SDS011;5747;56.748;13.882;2023-10-31T09:52:18;2.40;;;2.20;;
11384;SDS011;5747;56.748;13.882;2023-10-31T09:54:47;2.30;;;2.10;;
11384;SDS011;5747;56.748;13.882;2023-10-31T09:57:16;3.13;;;2.13;;
11384;SDS011;5747;56.748;13.882;2023-10-31T09:59:45;2.17;;;2.00;;
11384;SDS011;5747;56.748;13.882;2023-10-31T10:02:13;2.37;;;2.17;;
11384;SDS011;5747;56.748;13.882;2023-10-31T10:04:41;2.43;;;2.23;;
11384;SDS011;5747;56.748;13.882;2023-10-31T10:07:14;3.33;;;2.13;;
11384;SDS011;5747;56.748;13.882;2023-10-31T10:09:43;2.23;;;2.03;;
11384;SDS011;5747;56.748;13.882;2023-10-31T10:12:12;2.40;;;2.13;;
11384;SDS011;5747;56.748;13.882;2023-10-31T10:14:41;3.07;;;2.17;;
11384;SDS011;5747;56.748;13.882;2023-10-31T10:17:15;4.60;;;2.60;;
11384;SDS011;5747;56.748;13.882;2023-10-31T10:19:44;3.33;;;2.60;;
11384;SDS011;5747;56.748;13.882;2023-10-31T10:22:14;2.93;;;2.20;;
11384;SDS011;5747;56.748;13.882;2023-10-31T10:24:42;3.50;;;2.10;;
11384;SDS011;5747;56.748;13.882;2023-10-31T10:27:11;5.10;;;2.60;;
11384;SDS011;5747;56.748;13.882;2023-10-31T10:29:39;3.63;;;2.50;;
11384;SDS011;5747;56.748;13.882;2023-10-31T10:32:08;3.60;;;2.33;;
11384;SDS011;5747;56.748;13.882;2023-10-31T10:34:36;2.63;;;2.40;;
11384;SDS011;5747;56.748;13.882;2023-10-31T10:37:04;3.33;;;2.50;;
11384;SDS011;5747;56.748;13.882;2023-10-31T10:39:34;3.83;;;2.93;;
11384;SDS011;5747;56.748;13.882;2023-10-31T10:42:08;4.03;;;2.50;;
11384;SDS011;5747;56.748;13.882;2023-10-31T10:44:38;4.33;;;2.47;;
11384;SDS011;5747;56.748;13.882;2023-10-31T10:47:15;4.43;;;2.60;;
11384;SDS011;5747;56.748;13.882;2023-10-31T10:49:46;6.43;;;2.43;;
11384;SDS011;5747;56.748;13.882;2023-10-31T10:52:18;4.67;;;2.40;;
11384;SDS011;5747;56.748;13.882;2023-10-31T10:54:54;3.13;;;2.10;;
11384;SDS011;5747;56.748;13.882;2023-10-31T10:57:31;3.93;;;2.10;;
11384;SDS011;5747;56.748;13.882;2023-10-31T11:00:05;3.33;;;2.07;;
11384;SDS011;5747;56.748;13.882;2023-10-31T11:02:36;4.00;;;2.10;;
11384;SDS011;5747;56.748;13.882;2023-10-31T11:05:05;2.67;;;1.93;;
11384;SDS011;5747;56.748;13.882;2023-10-31T11:07:35;3.93;;;2.20;;
11384;SDS011;5747;56.748;13.882;2023-10-31T11:10:06;5.57;;;2.10;;
11384;SDS011;5747;56.748;13.882;2023-10-31T11:12:36;4.20;;;2.40;;
11384;SDS011;5747;56.748;13.882;2023-10-31T11:15:06;3.27;;;2.07;;
11384;SDS011;5747;56.748;13.882;2023-10-31T11:17:37;3.80;;;1.97;;
11384;SDS011;5747;56.748;13.882;2023-10-31T11:20:09;3.27;;;1.57;;
11384;SDS011;5747;56.748;13.882;2023-10-31T11:22:41;5.97;;;1.97;;
11384;SDS011;5747;56.748;13.882;2023-10-31T11:25:14;5.27;;;2.00;;
11384;SDS011;5747;56.748;13.882;2023-10-31T11:27:56;3.77;;;1.90;;
11384;SDS011;5747;56.748;13.882;2023-10-31T11:30:39;4.03;;;1.70;;
11384;SDS011;5747;56.748;13.882;2023-10-31T11:33:11;3.67;;;1.73;;
11384;SDS011;5747;56.748;13.882;2023-10-31T11:35:41;4.67;;;1.80;;
11384;SDS011;5747;56.748;13.882;2023-10-31T11:38:11;4.23;;;1.43;;
11384;SDS011;5747;56.748;13.882;2023-10-31T11:40:57;3.47;;;1.60;;
11384;SDS011;5747;56.748;13.882;2023-10-31T11:46:20;2.53;;;1.43;;
11384;SDS011;5747;56.748;13.882;2023-10-31T11:48:52;3.37;;;1.73;;
11384;SDS011;5747;56.748;13.882;2023-10-31T11:51:22;5.37;;;1.37;;
11384;SDS011;5747;56.748;13.882;2023-10-31T11:53:50;3.50;;;1.80;;
11384;SDS011;5747;56.748;13.882;2023-10-31T11:56:20;2.63;;;1.67;;
11384;SDS011;5747;56.748;13.882;2023-10-31T11:58:56;5.80;;;1.73;;
11384;SDS011;5747;56.748;13.882;2023-10-31T12:01:25;4.43;;;1.70;;
11384;SDS011;5747;56.748;13.882;2023-10-31T12:03:53;2.67;;;1.70;;
11384;SDS011;5747;56.748;13.882;2023-10-31T12:06:21;3.53;;;1.83;;
11384;SDS011;5747;56.748;13.882;2023-10-31T12:08:49;3.23;;;1.83;;
11384;SDS011;5747;56.748;13.882;2023-10-31T12:11:18;4.60;;;1.70;;
11384;SDS011;5747;56.748;13.882;2023-10-31T12:13:53;2.43;;;1.60;;
11384;SDS011;5747;56.748;13.882;2023-10-31T12:16:23;3.80;;;1.77;;
11384;SDS011;5747;56.748;13.882;2023-10-31T12:18:54;2.27;;;1.60;;
11384;SDS011;5747;56.748;13.882;2023-10-31T12:21:38;4.30;;;1.80;;
11384;SDS011;5747;56.748;13.882;2023-10-31T12:24:09;2.77;;;1.77;;
11384;SDS011;5747;56.748;13.882;2023-10-31T12:26:38;3.17;;;1.60;;
11384;SDS011;5747;56.748;13.882;2023-10-31T12:29:12;4.20;;;1.50;;
11384;SDS011;5747;56.748;13.882;2023-10-31T12:31:44;5.67;;;1.90;;
11384;SDS011;5747;56.748;13.882;2023-10-31T12:34:14;3.50;;;1.97;;
11384;SDS011;5747;56.748;13.882;2023-10-31T12:36:42;5.33;;;2.00;;
11384;SDS011;5747;56.748;13.882;2023-10-31T12:39:12;2.60;;;1.60;;
11384;SDS011;5747;56.748;13.882;2023-10-31T12:41:41;2.67;;;1.87;;
11384;SDS011;5747;56.748;13.882;2023-10-31T12:44:13;2.00;;;1.70;;
11384;SDS011;5747;56.748;13.882;2023-10-31T12:46:45;3.07;;;1.70;;
11384;SDS011;5747;56.748;13.882;2023-10-31T12:49:16;4.33;;;1.67;;
11384;SDS011;5747;56.748;13.882;2023-10-31T12:51:55;3.37;;;1.90;;
11384;SDS011;5747;56.748;13.882;2023-10-31T12:54:27;2.00;;;1.83;;
11384;SDS011;5747;56.748;13.882;2023-10-31T12:56:58;2.50;;;1.93;;
11384;SDS011;5747;56.748;13.882;2023-10-31T12:59:28;4.00;;;1.90;;
11384;SDS011;5747;56.748;13.882;2023-10-31T13:01:56;2.80;;;1.83;;
11384;SDS011;5747;56.748;13.882;2023-10-31T13:04:25;2.67;;;1.73;;
11384;SDS011;5747;56.748;13.882;2023-10-31T13:06:55;5.40;;;1.80;;
11384;SDS011;5747;56.748;13.882;2023-10-31T13:09:27;2.93;;;1.70;;
11384;SDS011;5747;56.748;13.882;2023-10-31T13:11:57;4.13;;;2.00;;
11384;SDS011;5747;56.748;13.882;2023-10-31T13:14:28;4.33;;;1.70;;
11384;SDS011;5747;56.748;13.882;2023-10-31T13:16:57;2.57;;;1.80;;
11384;SDS011;5747;56.748;13.882;2023-10-31T13:19:25;4.10;;;1.80;;
11384;SDS011;5747;56.748;13.882;2023-10-31T13:21:53;2.73;;;1.63;;
11384;SDS011;5747;56.748;13.882;2023-10-31T13:24:21;3.70;;;1.90;;
11384;SDS011;5747;56.748;13.882;2023-10-31T13:26:50;1.97;;;1.77;;
11384;SDS011;5747;56.748;13.882;2023-10-31T13:29:20;3.67;;;1.90;;
11384;SDS011;5747;56.748;13.882;2023-10-31T13:31:53;4.20;;;2.03;;
11384;SDS011;5747;56.748;13.882;2023-10-31T13:34:21;8.70;;;2.10;;
11384;SDS011;5747;56.748;13.882;2023-10-31T13:36:50;4.83;;;2.13;;
11384;SDS011;5747;56.748;13.882;2023-10-31T13:39:20;5.07;;;2.00;;
11384;SDS011;5747;56.748;13.882;2023-10-31T13:41:49;4.57;;;1.90;;
11384;SDS011;5747;56.748;13.882;2023-10-31T13:44:18;5.40;;;1.80;;
11384;SDS011;5747;56.748;13.882;2023-10-31T13:46:46;3.17;;;2.20;;
11384;SDS011;5747;56.748;13.882;2023-10-31T13:49:16;4.57;;;2.20;;
11384;SDS011;5747;56.748;13.882;2023-10-31T13:51:45;3.13;;;1.87;;
11384;SDS011;5747;56.748;13.882;2023-10-31T13:54:14;2.30;;;1.93;;
11384;SDS011;5747;56.748;13.882;2023-10-31T13:56:42;3.53;;;2.00;;
11384;SDS011;5747;56.748;13.882;2023-10-31T13:59:10;3.53;;;1.80;;
11384;SDS011;5747;56.748;13.882;2023-10-31T14:01:38;4.40;;;1.83;;
11384;SDS011;5747;56.748;13.882;2023-10-31T14:04:07;3.00;;;1.70;;
11384;SDS011;5747;56.748;13.882;2023-10-31T14:06:37;2.00;;;1.63;;
11384;SDS011;5747;56.748;13.882;2023-10-31T14:09:05;1.60;;;1.50;;
11384;SDS011;5747;56.748;13.882;2023-10-31T14:11:33;2.90;;;1.70;;
11384;SDS011;5747;56.748;13.882;2023-10-31T14:14:02;2.53;;;1.80;;
11384;SDS011;5747;56.748;13.882;2023-10-31T14:16:33;1.87;;;1.60;;
11384;SDS011;5747;56.748;13.882;2023-10-31T14:19:01;2.47;;;1.80;;
11384;SDS011;5747;56.748;13.882;2023-10-31T14:21:30;2.67;;;1.40;;
11384;SDS011;5747;56.748;13.882;2023-10-31T14:23:59;2.10;;;1.57;;
11384;SDS011;5747;56.748;13.882;2023-10-31T14:26:37;2.00;;;1.40;;
11384;SDS011;5747;56.748;13.882;2023-10-31T14:29:07;1.37;;;1.27;;
11384;SDS011;5747;56.748;13.882;2023-10-31T14:31:38;2.83;;;1.37;;
11384;SDS011;5747;56.748;13.882;2023-10-31T14:34:08;2.13;;;1.27;;
11384;SDS011;5747;56.748;13.882;2023-10-31T14:36:36;2.57;;;1.20;;
11384;SDS011;5747;56.748;13.882;2023-10-31T14:39:05;1.63;;;1.30;;
11384;SDS011;5747;56.748;13.882;2023-10-31T14:41:34;1.53;;;1.20;;
11384;SDS011;5747;56.748;13.882;2023-10-31T14:44:03;1.43;;;1.23;;
11384;SDS011;5747;56.748;13.882;2023-10-31T14:46:31;1.43;;;1.10;;
11384;SDS011;5747;56.748;13.882;2023-10-31T14:48:59;1.00;;;0.90;;
11384;SDS011;5747;56.748;13.882;2023-10-31T14:51:29;0.80;;;0.80;;
11384;SDS011;5747;56.748;13.882;2023-10-31T14:53:57;1.17;;;0.73;;
11384;SDS011;5747;56.748;13.882;2023-10-31T14:56:27;0.70;;;0.70;;
11384;SDS011;5747;56.748;13.882;2023-10-31T14:58:56;0.70;;;0.70;;